Time;durP1;ratioP1;P1;durP2;ratioP2;P2;SDS_P1;SDS_P2;PMS_P1;PMS_P2;Temp;Humidity;BMP_temperature;BMP_pressure;BME280_temperature;BME280_humidity;BME280_pressure;Samples;Min_cycle;Max_cycle;Signal;HPM_P1;HPM_P2
2022/05/10 00:00:13;;;;;;;10.60;5.70;;;;;;;7.73;100.00;101407.25;1775327;81;21046;-61
2022/05/10 00:02:46;;;;;;;11.95;5.87;;;;;;;7.66;100.00;101405.66;1775480;81;21057;-61
2022/05/10 00:05:13;;;;;;;9.50;5.40;;;;;;;7.60;100.00;101404.06;1775325;81;21026;-61
2022/05/10 00:07:41;;;;;;;12.43;5.25;;;;;;;7.57;100.00;101407.11;1775292;81;21011;-61
2022/05/10 00:10:10;;;;;;;15.58;5.80;;;;;;;7.62;100.00;101401.45;1775577;81;21597;-61
2022/05/10 00:12:38;;;;;;;9.40;5.45;;;;;;;7.60;100.00;101401.50;1775645;81;21522;-61
2022/05/10 00:15:08;;;;;;;13.65;6.30;;;;;;;7.50;100.00;101408.07;1775528;81;21502;-62
2022/05/10 00:17:41;;;;;;;11.60;6.35;;;;;;;7.52;100.00;101405.05;1775565;81;21018;-61
2022/05/10 00:20:13;;;;;;;12.93;6.42;;;;;;;7.56;100.00;101408.83;1775516;81;21002;-61
2022/05/10 00:22:41;;;;;;;11.85;6.22;;;;;;;7.58;100.00;101403.25;1775566;81;21463;-61
2022/05/10 00:25:12;;;;;;;14.87;6.22;;;;;;;7.53;100.00;101402.91;1775505;81;21046;-61
2022/05/10 00:27:39;;;;;;;12.35;6.30;;;;;;;7.58;100.00;101408.38;1775492;81;21507;-61
2022/05/10 00:30:08;;;;;;;12.53;6.95;;;;;;;7.54;100.00;101408.42;1775519;81;21494;-61
2022/05/10 00:32:38;;;;;;;11.60;6.45;;;;;;;7.42;100.00;101405.63;1773671;81;21500;-61
2022/05/10 00:35:11;;;;;;;13.62;6.20;;;;;;;7.36;100.00;101404.45;1763858;81;21019;-60
2022/05/10 00:37:39;;;;;;;12.63;6.08;;;;;;;7.33;100.00;101404.08;1763034;81;21552;-60
2022/05/10 00:40:08;;;;;;;12.45;6.60;;;;;;;7.26;100.00;101406.75;1763733;81;21043;-61
2022/05/10 00:42:40;;;;;;;14.28;6.28;;;;;;;7.20;100.00;101407.72;1764006;81;21022;-60
2022/05/10 00:45:15;;;;;;;14.60;6.35;;;;;;;7.13;100.00;101406.95;1753028;81;21014;-61
2022/05/10 00:48:07;;;;;;;11.93;6.10;;;;;;;7.12;100.00;101404.43;1763864;81;21111;-60
2022/05/10 00:50:45;;;;;;;17.07;6.45;;;;;;;7.06;100.00;101403.25;1763994;81;21149;-61
2022/05/10 00:53:53;;;;;;;18.12;6.72;;;;;;;6.96;100.00;101404.65;1763756;81;21033;-61
2022/05/10 00:56:42;;;;;;;13.80;6.72;;;;;;;6.93;100.00;101403.84;1757570;81;21051;-61
2022/05/10 00:59:25;;;;;;;14.13;7.33;;;;;;;6.82;100.00;101403.56;1763980;81;21027;-61
2022/05/10 01:01:58;;;;;;;14.13;7.53;;;;;;;6.78;100.00;101404.91;1763964;81;21093;-61
2022/05/10 01:04:45;;;;;;;13.38;7.03;;;;;;;6.75;100.00;101410.93;1763869;81;21015;-62
2022/05/10 01:07:27;;;;;;;11.88;6.80;;;;;;;6.69;100.00;101408.87;1763662;81;21082;-60
2022/05/10 01:10:02;;;;;;;13.60;7.05;;;;;;;6.66;100.00;101409.77;1762295;81;21985;-61
2022/05/10 01:12:40;;;;;;;15.18;7.12;;;;;;;6.61;100.00;101409.83;1764014;81;21031;-61
2022/05/10 01:15:16;;;;;;;16.30;7.00;;;;;;;6.55;100.00;101411.19;1764130;81;21010;-60
2022/05/10 01:17:46;;;;;;;11.85;6.42;;;;;;;6.49;100.00;101416.38;1764087;81;21027;-60
2022/05/10 01:20:17;;;;;;;12.60;6.60;;;;;;;6.38;100.00;101413.09;1763920;81;21027;-61
2022/05/10 01:22:56;;;;;;;12.33;6.72;;;;;;;6.15;100.00;101416.78;1763931;81;21003;-62
2022/05/10 01:25:37;;;;;;;10.63;6.47;;;;;;;6.23;100.00;101414.58;1763829;81;21043;-61
2022/05/10 01:28:34;;;;;;;11.45;6.40;;;;;;;6.08;100.00;101408.75;1763693;81;21035;-61
2022/05/10 01:31:06;;;;;;;12.55;6.50;;;;;;;6.09;100.00;101401.95;1763319;80;21054;-61
2022/05/10 01:33:40;;;;;;;10.82;5.58;;;;;;;6.10;100.00;101412.56;1758500;81;21059;-60
2022/05/10 01:36:41;;;;;;;10.50;6.35;;;;;;;5.97;100.00;101410.15;1751287;82;21047;-60
2022/05/10 01:39:19;;;;;;;12.13;5.92;;;;;;;5.89;100.00;101400.84;1752858;82;21095;-62
2022/05/10 01:42:04;;;;;;;12.40;5.78;;;;;;;5.89;100.00;101400.84;1745341;82;21032;-61
2022/05/10 01:44:59;;;;;;;11.83;5.72;;;;;;;5.91;100.00;101411.90;1753064;82;21066;-62
2022/05/10 01:47:43;;;;;;;10.70;5.70;;;;;;;6.02;100.00;101411.37;1753157;82;21031;-61
2022/05/10 01:50:39;;;;;;;10.05;5.78;;;;;;;5.90;100.00;101410.19;1752045;82;21066;-60
2022/05/10 01:53:20;;;;;;;11.55;5.55;;;;;;;5.90;100.00;101403.39;1753054;82;21595;-60
2022/05/10 01:56:06;;;;;;;10.82;5.80;;;;;;;5.89;100.00;101397.84;1753062;82;21027;-61
2022/05/10 01:58:36;;;;;;;10.58;5.53;;;;;;;6.01;100.00;101398.19;1753097;82;21035;-61
2022/05/10 02:01:19;;;;;;;10.63;5.40;;;;;;;6.12;100.00;101411.68;1752986;82;21086;-61
2022/05/10 02:04:09;;;;;;;11.05;5.72;;;;;;;6.02;100.00;101403.70;1753117;82;21047;-61
2022/05/10 02:07:02;;;;;;;9.35;5.75;;;;;;;6.02;100.00;101403.70;1753136;82;21070;-61
2022/05/10 02:09:40;;;;;;;11.97;5.40;;;;;;;6.04;100.00;101413.47;1752795;82;21067;-61
2022/05/10 02:12:18;;;;;;;9.75;5.37;;;;;;;6.11;100.00;101413.84;1752772;81;21126;-61
2022/05/10 02:14:50;;;;;;;10.08;5.60;;;;;;;6.15;100.00;101412.94;1752885;81;21034;-61
2022/05/10 02:17:32;;;;;;;10.80;5.33;;;;;;;6.18;100.00;101414.20;1753065;82;21046;-61
2022/05/10 02:20:22;;;;;;;11.85;4.95;;;;;;;6.23;100.00;101417.13;1753329;82;21075;-61
2022/05/10 02:23:25;;;;;;;8.03;4.92;;;;;;;6.09;100.00;101410.89;1752434;82;21043;-61
2022/05/10 02:26:06;;;;;;;11.57;5.15;;;;;;;6.26;100.00;101416.64;1753064;82;21531;-61
2022/05/10 02:29:03;;;;;;;11.55;5.22;;;;;;;6.27;100.00;101422.19;1752492;81;21032;-61
2022/05/10 02:34:40;;;;;;;10.08;5.12;;;;;;;6.16;100.00;101424.88;1766855;81;21032;-61
2022/05/10 02:37:07;;;;;;;10.03;5.20;;;;;;;6.25;100.00;101420.52;1780261;80;21503;-60
2022/05/10 02:39:36;;;;;;;8.80;5.05;;;;;;;6.32;100.00;101420.84;1782781;79;21072;-60
2022/05/10 02:42:05;;;;;;;9.33;5.03;;;;;;;6.32;100.00;101420.84;1783121;80;21011;-60
2022/05/10 02:44:32;;;;;;;9.78;5.45;;;;;;;6.58;100.00;101426.48;1783141;80;21555;-60
2022/05/10 02:47:00;;;;;;;9.73;5.15;;;;;;;6.44;100.00;101424.53;1782794;80;21003;-60
2022/05/10 02:49:28;;;;;;;11.97;4.80;;;;;;;6.58;100.00;101432.04;1783155;80;21496;-60
2022/05/10 02:51:56;;;;;;;10.03;4.70;;;;;;;6.49;100.00;101430.45;1782842;79;21102;-60
2022/05/10 02:54:23;;;;;;;8.93;4.28;;;;;;;6.47;100.00;101427.06;1783086;79;21027;-61
2022/05/10 02:56:53;;;;;;;8.08;4.35;;;;;;;6.48;100.00;101427.91;1782856;80;21031;-61
2022/05/10 02:59:25;;;;;;;7.78;4.35;;;;;;;6.51;100.00;101435.12;1782874;80;21107;-60
2022/05/10 03:02:16;;;;;;;8.30;4.42;;;;;;;6.47;100.00;101430.03;1781848;80;21500;-61
2022/05/10 03:04:48;;;;;;;7.90;4.15;;;;;;;6.54;100.00;101435.50;1783276;79;21086;-60
2022/05/10 03:07:15;;;;;;;8.25;4.25;;;;;;;6.65;100.00;101432.80;1782897;80;21138;-60
2022/05/10 03:09:42;;;;;;;11.73;4.80;;;;;;;6.76;100.00;101432.23;1781955;80;21131;-60
2022/05/10 03:12:11;;;;;;;7.90;4.20;;;;;;;6.88;100.00;101436.34;1781155;80;21083;-61
2022/05/10 03:14:39;;;;;;;9.00;4.40;;;;;;;6.98;100.00;101437.91;1781529;80;21027;-61
2022/05/10 03:17:08;;;;;;;7.67;4.35;;;;;;;7.04;100.00;101440.38;1781138;79;21055;-60
2022/05/10 03:19:35;;;;;;;7.47;4.72;;;;;;;7.13;100.00;101436.39;1781297;79;20996;-60
2022/05/10 03:22:03;;;;;;;10.10;4.20;;;;;;;7.14;100.00;101437.26;1781176;80;21008;-61
2022/05/10 03:24:32;;;;;;;7.05;4.10;;;;;;;7.09;100.00;101443.70;1781459;80;21054;-60
2022/05/10 03:27:02;;;;;;;9.05;4.10;;;;;;;7.20;100.00;101448.25;1781134;80;21055;-60
2022/05/10 03:29:31;;;;;;;7.83;4.50;;;;;;;7.45;100.00;101440.63;1779330;80;21067;-60
2022/05/10 03:31:58;;;;;;;7.97;4.17;;;;;;;7.52;100.00;101443.06;1738808;82;21042;-61
2022/05/10 03:37:11;;;;;;;7.45;4.20;;;;;;;7.50;100.00;101449.93;1765246;81;21025;-61
2022/05/10 03:39:38;;;;;;;8.50;4.65;;;;;;;7.64;100.00;101448.39;1765083;80;21525;-61
2022/05/10 03:42:06;;;;;;;7.22;4.17;;;;;;;7.67;100.00;101448.80;1765286;80;20982;-61
2022/05/10 03:44:35;;;;;;;8.35;4.58;;;;;;;7.77;100.00;101457.58;1765198;81;21030;-61
2022/05/10 03:47:05;;;;;;;9.18;4.62;;;;;;;7.84;99.03;101457.03;1765351;80;21513;-61
2022/05/10 03:49:33;;;;;;;7.50;4.37;;;;;;;7.91;98.83;101459.91;1765426;80;21053;-61
2022/05/10 03:52:02;;;;;;;8.65;4.70;;;;;;;7.99;97.71;101455.48;1765173;81;21525;-61
2022/05/10 03:54:29;;;;;;;10.82;4.65;;;;;;;8.09;97.58;101452.33;1765293;80;21026;-61
2022/05/10 03:56:58;;;;;;;7.12;4.28;;;;;;;8.19;97.28;101456.41;1765059;81;21073;-61
2022/05/10 03:59:25;;;;;;;9.70;4.40;;;;;;;8.31;97.24;101460.43;1765119;80;21037;-61
2022/05/10 04:01:53;;;;;;;11.08;4.75;;;;;;;8.44;96.09;101455.95;1765292;80;21029;-61
2022/05/10 04:04:21;;;;;;;10.13;4.42;;;;;;;8.65;95.65;101462.36;1765119;80;21565;-61
2022/05/10 04:06:48;;;;;;;7.90;4.20;;;;;;;8.73;94.85;101459.64;1765293;81;21054;-61
2022/05/10 04:09:17;;;;;;;9.25;5.15;;;;;;;8.85;94.26;101459.83;1764833;81;21033;-61
2022/05/10 04:11:45;;;;;;;9.28;4.60;;;;;;;9.05;94.57;101452.97;1765076;81;21506;-61
2022/05/10 04:14:13;;;;;;;11.95;5.10;;;;;;;9.29;93.34;101451.12;1762321;80;21044;-61
2022/05/10 04:16:40;;;;;;;9.88;4.55;;;;;;;9.24;90.58;101447.80;1763203;81;21014;-61
2022/05/10 04:19:07;;;;;;;7.87;4.80;;;;;;;9.33;89.39;101451.89;1762940;81;20968;-62
2022/05/10 04:21:38;;;;;;;9.10;4.40;;;;;;;9.42;88.78;101459.37;1765654;81;21075;-61
2022/05/10 04:24:07;;;;;;;13.58;5.50;;;;;;;9.57;87.16;101455.57;1765518;81;21056;-61
2022/05/10 04:26:35;;;;;;;9.53;4.72;;;;;;;9.71;86.70;101453.95;1765874;81;21523;-61
2022/05/10 04:29:03;;;;;;;11.90;4.85;;;;;;;9.76;84.59;101452.95;1765583;81;21076;-61
2022/05/10 04:31:32;;;;;;;11.15;5.10;;;;;;;9.90;82.71;101455.17;1762516;81;21084;-61
2022/05/10 04:33:59;;;;;;;13.55;5.20;;;;;;;10.08;80.95;101451.28;1762402;81;21004;-62
2022/05/10 04:36:26;;;;;;;10.15;5.12;;;;;;;10.26;79.49;101452.92;1762372;81;21040;-61
2022/05/10 04:38:55;;;;;;;11.20;4.92;;;;;;;10.37;79.15;101449.20;1762617;81;21079;-61
2022/05/10 04:41:27;;;;;;;10.63;4.92;;;;;;;10.47;78.51;101450.25;1762305;81;21008;-61
2022/05/10 04:44:04;;;;;;;8.20;5.17;;;;;;;10.58;78.44;101449.06;1762626;81;21013;-62
2022/05/10 04:46:35;;;;;;;11.08;5.17;;;;;;;10.84;76.57;101452.58;1762688;81;21036;-62
2022/05/10 04:49:03;;;;;;;10.05;4.53;;;;;;;11.11;72.31;101448.75;1762524;81;21480;-61
2022/05/10 04:51:33;;;;;;;9.63;5.15;;;;;;;11.37;68.30;101450.05;1762724;81;21048;-62
2022/05/10 04:54:00;;;;;;;12.10;5.87;;;;;;;11.64;66.29;101455.22;1762596;81;21008;-61
2022/05/10 04:56:28;;;;;;;12.65;5.62;;;;;;;11.92;62.28;101450.43;1762364;81;21080;-62
2022/05/10 04:58:55;;;;;;;12.63;5.50;;;;;;;12.09;59.64;101453.28;1762331;81;21067;-62
2022/05/10 05:01:26;;;;;;;13.58;6.15;;;;;;;12.26;59.01;101455.25;1762577;81;21021;-62
2022/05/10 05:04:00;;;;;;;13.25;5.35;;;;;;;12.36;57.63;101461.76;1762613;81;21024;-62
2022/05/10 05:06:26;;;;;;;11.63;5.72;;;;;;;12.49;56.63;101454.43;1762568;81;21036;-62
2022/05/10 05:08:54;;;;;;;12.45;5.17;;;;;;;12.63;55.50;101456.05;1762294;81;21064;-62
2022/05/10 05:11:22;;;;;;;13.32;5.10;;;;;;;12.70;54.05;101453.23;1762582;81;21028;-62
2022/05/10 05:13:50;;;;;;;13.13;5.37;;;;;;;12.83;54.08;101457.88;1762332;81;21060;-62
2022/05/10 05:16:18;;;;;;;10.20;5.00;;;;;;;12.88;51.69;101457.70;1734587;81;21028;-62
2022/05/10 05:18:46;;;;;;;17.55;5.17;;;;;;;12.96;53.33;101460.83;1762440;81;21016;-62
2022/05/10 05:21:13;;;;;;;8.00;4.42;;;;;;;13.06;52.44;101461.73;1762387;81;21033;-62
2022/05/10 05:23:42;;;;;;;11.70;4.53;;;;;;;13.10;52.18;101462.88;1762670;81;21040;-62
2022/05/10 05:26:10;;;;;;;8.58;4.35;;;;;;;13.19;51.82;101456.48;1762312;81;21013;-62
2022/05/10 05:28:38;;;;;;;8.80;3.40;;;;;;;13.30;51.38;101453.06;1762564;81;21032;-62
2022/05/10 05:31:08;;;;;;;7.70;3.15;;;;;;;13.35;48.99;101456.75;1771363;80;21126;-61
2022/05/10 05:33:38;;;;;;;11.93;3.52;;;;;;;13.43;49.69;101452.94;1776994;80;21035;-62
2022/05/10 05:36:05;;;;;;;7.50;3.40;;;;;;;13.49;48.91;101454.44;1776903;80;21059;-62
2022/05/10 05:38:33;;;;;;;8.28;3.40;;;;;;;13.55;49.58;101457.23;1777357;81;21520;-62
2022/05/10 05:41:01;;;;;;;7.05;3.30;;;;;;;13.64;48.89;101455.55;1779171;81;21098;-63
2022/05/10 05:43:29;;;;;;;8.10;3.00;;;;;;;13.69;49.76;101454.08;1779284;81;21542;-62
2022/05/10 05:45:56;;;;;;;6.45;3.00;;;;;;;13.75;49.41;101450.77;1803633;79;20998;-62
2022/05/10 05:48:23;;;;;;;6.47;3.35;;;;;;;13.72;49.07;101447.00;1810357;78;21047;-62
2022/05/10 05:50:50;;;;;;;7.12;3.25;;;;;;;13.85;49.17;101451.66;1772479;81;21074;-63
2022/05/10 05:53:21;;;;;;;7.10;2.98;;;;;;;13.90;47.70;101446.67;1810126;79;21022;-62
2022/05/10 05:55:48;;;;;;;7.10;3.05;;;;;;;14.02;48.79;101447.91;1810129;79;21038;-61
2022/05/10 05:58:16;;;;;;;6.35;2.70;;;;;;;14.14;48.50;101443.94;1809872;79;21019;-62
2022/05/10 06:00:45;;;;;;;7.87;2.75;;;;;;;14.25;47.61;101445.59;1810122;79;20983;-62
2022/05/10 06:03:12;;;;;;;7.50;3.25;;;;;;;14.35;47.48;101449.91;1772628;81;21086;-62
2022/05/10 06:05:39;;;;;;;8.30;3.70;;;;;;;14.32;46.40;101437.94;1772909;81;21574;-62
2022/05/10 06:08:09;;;;;;;5.85;3.10;;;;;;;14.44;47.06;101439.14;1772543;81;21602;-62
2022/05/10 06:10:36;;;;;;;5.35;3.30;;;;;;;14.46;47.97;101439.08;1809930;78;21593;-62
2022/05/10 06:13:04;;;;;;;10.45;3.80;;;;;;;14.59;46.58;101437.63;1810270;79;21019;-62
2022/05/10 06:15:31;;;;;;;8.60;4.20;;;;;;;14.64;47.24;101436.97;1772576;81;21042;-62
2022/05/10 06:17:59;;;;;;;10.15;4.08;;;;;;;14.80;46.99;101444.84;1794431;79;21014;-62
2022/05/10 06:20:27;;;;;;;10.32;4.03;;;;;;;14.89;46.64;101435.82;1809991;78;21022;-60
2022/05/10 06:22:55;;;;;;;9.18;4.08;;;;;;;14.95;46.05;101435.53;1772961;81;21007;-60
2022/05/10 06:25:24;;;;;;;8.33;4.50;;;;;;;14.79;46.84;101430.23;1772932;81;21595;-60
2022/05/10 06:27:55;;;;;;;14.65;5.40;;;;;;;14.78;46.21;101437.59;1810257;79;21455;-60
2022/05/10 06:30:24;;;;;;;8.55;4.70;;;;;;;14.83;47.29;101433.89;1808000;79;21516;-60
2022/05/10 06:32:57;;;;;;;10.45;4.97;;;;;;;14.89;45.88;101439.70;1799416;80;21550;-61
2022/05/10 06:35:24;;;;;;;10.82;5.15;;;;;;;14.77;46.84;101443.71;1799712;80;21006;-61
2022/05/10 06:40:39;;;;;;;11.33;5.33;;;;;;;14.87;46.81;101428.57;1799507;79;21003;-61
2022/05/10 06:43:06;;;;;;;8.43;4.85;;;;;;;15.10;46.20;101436.07;1799795;79;20987;-61
2022/05/10 06:45:36;;;;;;;14.20;5.45;;;;;;;15.19;46.99;101430.45;1799565;79;21053;-61
2022/05/10 06:48:04;;;;;;;12.30;5.12;;;;;;;15.18;47.00;101427.47;1799925;79;21558;-61
2022/05/10 06:50:32;;;;;;;14.40;5.17;;;;;;;15.34;46.86;101424.96;1799577;80;21026;-61
2022/05/10 06:53:00;;;;;;;14.53;6.08;;;;;;;15.28;45.74;101426.56;1799567;80;21021;-61
2022/05/10 06:55:30;;;;;;;10.72;4.53;;;;;;;15.36;46.50;101423.13;1799543;80;21030;-63
2022/05/10 06:57:58;;;;;;;9.43;4.35;;;;;;;15.37;41.90;101427.42;1798515;79;21034;-62
2022/05/10 07:00:25;;;;;;;14.47;6.00;;;;;;;15.43;43.20;101424.98;1799065;79;21023;-61
2022/05/10 07:02:52;;;;;;;12.18;5.60;;;;;;;15.44;42.75;101427.94;1798696;79;21716;-61
2022/05/10 07:05:20;;;;;;;12.65;6.20;;;;;;;15.30;42.93;101420.01;1798714;79;21074;-61
2022/05/10 07:07:48;;;;;;;9.50;4.95;;;;;;;15.45;43.70;101417.09;1798850;79;20995;-62
2022/05/10 07:10:18;;;;;;;9.00;2.83;;;;;;;15.50;42.99;101415.96;1798562;79;21090;-61
2022/05/10 07:12:46;;;;;;;5.60;2.70;;;;;;;15.67;40.65;101418.98;1798725;80;21633;-61
2022/05/10 07:15:19;;;;;;;8.58;2.92;;;;;;;15.84;40.87;101416.87;1798997;80;21081;-62
2022/05/10 07:17:47;;;;;;;5.42;2.70;;;;;;;15.79;38.85;101431.84;1798533;79;21546;-63
2022/05/10 07:20:17;;;;;;;9.68;3.70;;;;;;;16.01;40.21;101416.83;1798687;79;20987;-62
2022/05/10 07:22:45;;;;;;;6.65;2.60;;;;;;;16.01;40.63;101425.91;1798823;79;20987;-62
2022/05/10 07:25:17;;;;;;;6.78;3.20;;;;;;;16.06;37.88;101424.39;1798729;80;21098;-62
2022/05/10 07:27:45;;;;;;;7.53;3.62;;;;;;;16.13;37.67;101414.05;1798962;79;21499;-62
2022/05/10 07:30:14;;;;;;;5.30;2.45;;;;;;;16.18;39.48;101415.95;1798619;78;21551;-62
2022/05/10 07:32:42;;;;;;;3.83;2.40;;;;;;;16.17;37.79;101423.82;1806635;79;21050;-63
2022/05/10 07:35:10;;;;;;;4.40;2.40;;;;;;;15.91;37.55;101424.72;1806152;79;21019;-61
2022/05/10 07:37:39;;;;;;;5.45;2.62;;;;;;;16.19;37.54;101416.31;1806412;79;21053;-62
2022/05/10 07:40:10;;;;;;;5.03;2.20;;;;;;;16.28;35.28;101409.81;1763505;81;21089;-62
2022/05/10 07:42:40;;;;;;;5.50;2.10;;;;;;;16.23;37.18;101412.64;1763585;81;21050;-62
2022/05/10 07:45:10;;;;;;;7.55;2.10;;;;;;;16.39;36.75;101401.43;1763666;81;21089;-62
2022/05/10 07:47:43;;;;;;;2.25;1.40;;;;;;;16.65;37.78;101401.30;1761980;81;21070;-62
2022/05/10 07:50:08;;;;;;;5.10;1.98;;;;;;;16.61;34.67;101408.42;1742997;81;21267;-62
2022/05/10 07:52:35;;;;;;;3.77;1.40;;;;;;;16.84;37.05;101418.51;1744295;82;21033;-63
2022/05/10 07:55:03;;;;;;;3.10;1.67;;;;;;;16.89;36.93;101396.53;1744053;82;21039;-63
2022/05/10 07:57:30;;;;;;;3.45;1.98;;;;;;;17.07;36.70;101398.99;1744358;82;21049;-62
2022/05/10 07:59:57;;;;;;;2.90;1.50;;;;;;;17.10;37.39;101406.16;1743856;82;21101;-61
2022/05/10 08:02:24;;;;;;;1.80;1.50;;;;;;;16.46;34.26;101413.16;1744052;82;21077;-62
2022/05/10 08:04:51;;;;;;;5.92;1.80;;;;;;;16.65;34.34;101402.61;1744020;81;21497;-62
2022/05/10 08:07:18;;;;;;;3.47;1.85;;;;;;;17.13;35.19;101404.70;1744787;81;21515;-61
2022/05/10 08:09:46;;;;;;;2.40;1.77;;;;;;;17.39;35.92;101397.96;1744442;81;21714;-62
2022/05/10 08:12:13;;;;;;;6.08;2.10;;;;;;;17.37;36.82;101399.81;1744635;81;20994;-62
2022/05/10 08:14:42;;;;;;;3.75;1.52;;;;;;;17.54;36.22;101387.61;1744766;81;21033;-62
2022/05/10 08:17:09;;;;;;;3.00;2.00;;;;;;;17.32;36.40;101399.27;1744632;82;21014;-62
2022/05/10 08:19:38;;;;;;;3.10;1.62;;;;;;;16.68;35.16;101389.42;1744863;82;21022;-62
2022/05/10 08:22:06;;;;;;;2.95;1.57;;;;;;;17.11;35.92;101390.09;1744535;81;21046;-62
2022/05/10 08:24:34;;;;;;;3.35;1.60;;;;;;;17.57;37.05;101372.61;1744861;82;21038;-63
2022/05/10 08:27:04;;;;;;;3.60;2.00;;;;;;;17.54;35.91;101374.59;1715814;82;21014;-62
2022/05/10 08:29:31;;;;;;;3.25;1.65;;;;;;;17.71;35.92;101383.51;1744734;82;21025;-61
2022/05/10 08:31:58;;;;;;;2.90;1.62;;;;;;;18.18;35.81;101374.58;1744528;82;21097;-61
2022/05/10 08:34:27;;;;;;;5.60;1.90;;;;;;;17.99;36.46;101383.17;1744612;82;21490;-63
2022/05/10 08:36:55;;;;;;;6.22;1.90;;;;;;;18.06;37.88;101384.93;1744559;81;21069;-62
2022/05/10 08:39:22;;;;;;;2.00;1.50;;;;;;;17.83;37.40;101378.06;1744647;81;21030;-62
2022/05/10 08:42:01;;;;;;;3.62;1.60;;;;;;;18.05;37.56;101373.68;1744665;82;21045;-62
2022/05/10 08:44:35;;;;;;;5.25;2.05;;;;;;;17.19;38.18;101376.17;1744639;82;21120;-62
2022/05/10 08:47:07;;;;;;;4.08;1.60;;;;;;;17.04;37.82;101371.88;1744026;82;21065;-62
2022/05/10 08:49:54;;;;;;;6.40;1.85;;;;;;;16.96;38.08;101377.03;1744716;81;21065;-61
2022/05/10 08:52:28;;;;;;;3.50;1.55;;;;;;;17.40;37.02;101361.91;1716811;82;21077;-61
2022/05/10 08:54:54;;;;;;;6.65;1.95;;;;;;;17.28;36.47;101372.22;1744871;82;21558;-62
2022/05/10 08:57:39;;;;;;;3.25;1.47;;;;;;;17.61;36.62;101348.06;1744838;82;21065;-61
2022/05/10 09:00:27;;;;;;;3.40;1.60;;;;;;;17.97;35.57;101361.12;1744648;82;21546;-61
2022/05/10 09:02:59;;;;;;;5.55;1.60;;;;;;;17.78;35.46;101361.83;1744059;82;21585;-62
2022/05/10 09:05:39;;;;;;;1.82;1.50;;;;;;;17.92;35.11;101357.12;1744668;81;21485;-62
2022/05/10 09:08:32;;;;;;;2.12;1.55;;;;;;;17.82;36.55;101348.99;1744908;82;21481;-62
2022/05/10 09:11:07;;;;;;;4.78;1.85;;;;;;;17.26;36.61;101355.38;1744188;82;21156;-61
2022/05/10 09:13:36;;;;;;;2.15;1.72;;;;;;;17.14;36.64;101349.59;1744880;81;21473;-61
2022/05/10 09:16:13;;;;;;;3.50;1.80;;;;;;;17.28;37.00;101339.69;1744862;81;21565;-61
2022/05/10 09:18:52;;;;;;;3.40;1.50;;;;;;;17.51;37.70;101339.14;1743738;82;21060;-61
2022/05/10 09:21:47;;;;;;;9.80;1.50;;;;;;;18.04;37.59;101330.78;1744502;82;21034;-61
2022/05/10 09:24:42;;;;;;;4.25;1.57;;;;;;;18.33;37.49;101323.72;1744710;82;21006;-62
2022/05/10 09:27:10;;;;;;;3.12;1.60;;;;;;;18.45;35.72;101321.66;1744542;81;21025;-61
2022/05/10 09:29:47;;;;;;;2.27;1.50;;;;;;;18.05;33.04;101328.56;1749166;81;21015;-62
2022/05/10 09:35:28;;;;;;;4.75;1.87;;;;;;;17.36;33.75;101323.16;1780368;81;21070;-61
2022/05/10 09:38:00;;;;;;;2.47;1.45;;;;;;;17.67;35.13;101316.92;1758004;81;21502;-61
2022/05/10 09:40:35;;;;;;;3.98;1.65;;;;;;;17.71;33.13;101317.11;1780687;80;21041;-62
2022/05/10 09:43:25;;;;;;;2.62;1.67;;;;;;;17.94;33.23;101304.02;1749838;82;21058;-62
2022/05/10 09:46:22;;;;;;;4.12;1.82;;;;;;;18.34;33.77;101306.69;1747591;82;21031;-62
2022/05/10 09:48:50;;;;;;;2.40;1.60;;;;;;;18.61;33.42;101305.39;1754167;81;21081;-62
2022/05/10 09:51:36;;;;;;;3.30;1.70;;;;;;;18.91;31.71;101284.75;1750228;82;21125;-61
2022/05/10 09:54:25;;;;;;;2.83;1.75;;;;;;;18.84;32.08;101287.42;1780590;80;20994;-62
2022/05/10 09:56:59;;;;;;;3.50;1.80;;;;;;;18.94;32.33;101302.82;1748786;82;21069;-62
2022/05/10 09:59:41;;;;;;;3.33;1.90;;;;;;;18.19;32.11;101298.56;1780972;80;21026;-63
2022/05/10 10:02:08;;;;;;;4.47;2.05;;;;;;;18.31;33.75;101305.59;1748605;82;21186;-62
2022/05/10 10:04:40;;;;;;;2.58;1.87;;;;;;;18.52;33.07;101287.72;1779892;80;21073;-62
2022/05/10 10:07:21;;;;;;;3.85;2.08;;;;;;;18.79;32.56;101290.31;1748619;82;21014;-62
2022/05/10 10:09:55;;;;;;;5.35;2.15;;;;;;;18.95;32.05;101275.78;1779655;80;21092;-62
2022/05/10 10:12:41;;;;;;;2.80;1.98;;;;;;;19.18;32.06;101278.16;1748022;81;21042;-62
2022/05/10 10:15:32;;;;;;;4.28;2.00;;;;;;;19.04;32.24;101272.18;1779999;80;21045;-62
2022/05/10 10:18:08;;;;;;;3.47;2.02;;;;;;;19.09;33.12;101281.85;1747783;82;21090;-62
2022/05/10 10:20:54;;;;;;;4.35;2.70;;;;;;;18.45;32.16;101286.91;1779869;80;21105;-62
2022/05/10 10:23:41;;;;;;;5.87;2.52;;;;;;;18.32;33.04;101272.54;1747853;82;21014;-62
2022/05/10 10:26:25;;;;;;;3.83;1.72;;;;;;;19.05;32.46;101255.13;1779948;80;21529;-62
2022/05/10 10:29:14;;;;;;;3.12;1.70;;;;;;;19.55;31.26;101259.12;1779226;81;21038;-62
2022/05/10 10:31:55;;;;;;;5.58;2.20;;;;;;;19.25;31.19;101257.68;1745268;81;21093;-62
2022/05/10 10:34:51;;;;;;;5.95;1.87;;;;;;;19.36;30.68;101255.62;1773919;81;21073;-62
2022/05/10 10:37:33;;;;;;;4.33;2.00;;;;;;;19.68;30.55;101248.62;1773887;81;21073;-62
2022/05/10 10:40:15;;;;;;;4.78;2.40;;;;;;;19.69;31.24;101255.06;1743104;82;21070;-62
2022/05/10 10:43:15;;;;;;;7.40;2.40;;;;;;;18.95;32.54;101250.16;1774725;80;21126;-62
2022/05/10 10:45:47;;;;;;;4.70;2.22;;;;;;;18.73;33.65;101252.86;1764428;80;21008;-62
2022/05/10 10:48:36;;;;;;;5.17;2.50;;;;;;;19.11;34.12;101244.27;1773144;80;21018;-62
2022/05/10 10:51:03;;;;;;;3.80;1.77;;;;;;;19.15;32.51;101248.34;1784874;80;21239;-62
2022/05/10 10:53:34;;;;;;;4.20;2.00;;;;;;;18.52;33.07;101255.61;1782396;79;21067;-61
2022/05/10 10:56:08;;;;;;;2.15;1.80;;;;;;;18.69;33.29;101250.09;1777853;79;21033;-62
2022/05/10 10:59:16;;;;;;;3.92;2.00;;;;;;;18.98;33.01;101233.02;1825535;78;20970;-62
2022/05/10 11:01:51;;;;;;;2.55;1.90;;;;;;;19.60;33.54;101225.66;1797605;79;20999;-62
2022/05/10 11:04:38;;;;;;;2.52;1.82;;;;;;;19.72;33.12;101222.69;1788504;80;21038;-62
2022/05/10 11:07:19;;;;;;;4.03;1.70;;;;;;;19.92;31.54;101231.72;1756007;81;21050;-61
2022/05/10 11:10:23;;;;;;;7.50;2.70;;;;;;;19.88;32.33;101219.33;1750188;82;21074;-62
2022/05/10 11:13:20;;;;;;;4.75;2.17;;;;;;;19.54;32.96;101228.70;1756011;81;21031;-62
2022/05/10 11:15:55;;;;;;;4.92;2.50;;;;;;;19.03;32.84;101230.08;1755919;82;21140;-62
2022/05/10 11:18:50;;;;;;;4.87;2.30;;;;;;;19.67;32.31;101216.46;1787735;80;21058;-61
2022/05/10 11:21:30;;;;;;;4.22;1.98;;;;;;;20.01;32.88;101210.98;1761472;81;21036;-62
2022/05/10 11:24:11;;;;;;;2.20;1.80;;;;;;;20.54;32.16;101205.34;1761780;81;21441;-62
2022/05/10 11:26:56;;;;;;;4.72;2.30;;;;;;;20.81;30.91;101201.62;1775235;81;21524;-62
2022/05/10 11:30:08;;;;;;;3.90;1.92;;;;;;;20.37;30.85;101197.44;1773599;81;21070;-61
2022/05/10 11:33:07;;;;;;;6.50;2.20;;;;;;;20.20;31.91;101195.25;1773805;81;21127;-61
2022/05/10 11:35:55;;;;;;;5.62;2.40;;;;;;;19.16;32.74;101213.93;1780625;81;21019;-62
2022/05/10 11:38:43;;;;;;;5.42;2.45;;;;;;;18.42;33.27;101197.54;1700703;84;22022;-62
2022/05/10 11:41:34;;;;;;;7.10;3.00;;;;;;;18.14;32.74;101200.29;1755888;81;21143;-62
2022/05/10 11:44:22;;;;;;;7.15;2.08;;;;;;;17.79;32.46;101198.98;1769693;81;21044;-61
2022/05/10 11:47:32;;;;;;;4.10;2.50;;;;;;;18.55;32.48;101182.38;1772597;81;21064;-62
2022/05/10 11:54:24;;;;;;;4.05;2.37;;;;;;;18.94;31.94;101166.33;1772769;81;21090;-61
2022/05/10 11:56:54;;;;;;;7.87;3.95;;;;;;;19.09;32.04;101179.60;1779894;79;21063;-62
2022/05/10 11:59:28;;;;;;;6.45;2.22;;;;;;;19.37;31.11;101159.41;1766800;81;21009;-62
2022/05/10 12:01:57;;;;;;;6.80;2.60;;;;;;;19.88;31.55;101165.77;1719823;81;21040;-62
2022/05/10 12:04:41;;;;;;;4.65;2.87;;;;;;;19.51;31.26;101172.80;1746060;82;21039;-62
2022/05/10 12:07:25;;;;;;;6.33;2.50;;;;;;;19.29;30.88;101164.34;1745918;82;21063;-62
2022/05/10 12:09:58;;;;;;;4.62;2.22;;;;;;;19.58;31.40;101151.33;1745736;82;21051;-61